sensor_id;sensor_type;location;lat;lon;timestamp;pressure;altitude;pressure_sealevel;temperature;humidity
69257;BME280;56376;53.356;-1.748;2023-02-19T00:01:23;99784.81;;;7.71;100.00
69257;BME280;56376;53.356;-1.748;2023-02-19T00:04:03;99788.31;;;7.71;100.00
69257;BME280;56376;53.356;-1.748;2023-02-19T00:06:30;99770.88;;;7.76;100.00
69257;BME280;56376;53.356;-1.748;2023-02-19T00:08:56;99789.09;;;7.75;100.00
69257;BME280;56376;53.356;-1.748;2023-02-19T00:11:24;99781.25;;;7.76;100.00
69257;BME280;56376;53.356;-1.748;2023-02-19T00:13:52;99773.31;;;7.83;100.00
69257;BME280;56376;53.356;-1.748;2023-02-19T00:16:26;99806.38;;;7.77;100.00
69257;BME280;56376;53.356;-1.748;2023-02-19T00:18:53;99787.22;;;7.82;100.00
69257;BME280;56376;53.356;-1.748;2023-02-19T00:21:19;99786.22;;;7.87;100.00
69257;BME280;56376;53.356;-1.748;2023-02-19T00:23:53;99800.13;;;7.86;100.00
69257;BME280;56376;53.356;-1.748;2023-02-19T00:26:19;99779.34;;;7.85;100.00
69257;BME280;56376;53.356;-1.748;2023-02-19T00:28:46;99803.63;;;7.84;100.00
69257;BME280;56376;53.356;-1.748;2023-02-19T00:33:37;99797.78;;;7.74;100.00
69257;BME280;56376;53.356;-1.748;2023-02-19T00:36:04;99812.56;;;7.72;100.00
69257;BME280;56376;53.356;-1.748;2023-02-19T00:38:31;99813.38;;;7.74;100.00
69257;BME280;56376;53.356;-1.748;2023-02-19T00:40:59;99813.25;;;7.78;100.00
69257;BME280;56376;53.356;-1.748;2023-02-19T00:43:25;99795.19;;;7.72;100.00
69257;BME280;56376;53.356;-1.748;2023-02-19T00:45:50;99811.63;;;7.74;100.00
69257;BME280;56376;53.356;-1.748;2023-02-19T00:48:16;99802.00;;;7.79;100.00
69257;BME280;56376;53.356;-1.748;2023-02-19T00:50:42;99802.84;;;7.80;100.00
69257;BME280;56376;53.356;-1.748;2023-02-19T00:53:07;99826.41;;;7.72;100.00
69257;BME280;56376;53.356;-1.748;2023-02-19T00:55:33;99809.91;;;7.73;100.00
69257;BME280;56376;53.356;-1.748;2023-02-19T00:57:58;99831.44;;;7.80;100.00
69257;BME280;56376;53.356;-1.748;2023-02-19T01:00:23;99818.44;;;7.80;100.00
69257;BME280;56376;53.356;-1.748;2023-02-19T01:02:49;99817.59;;;7.79;100.00
69257;BME280;56376;53.356;-1.748;2023-02-19T01:05:14;99811.53;;;7.79;100.00
69257;BME280;56376;53.356;-1.748;2023-02-19T01:07:40;99831.53;;;7.75;100.00
69257;BME280;56376;53.356;-1.748;2023-02-19T01:10:05;99837.63;;;7.74;100.00
69257;BME280;56376;53.356;-1.748;2023-02-19T01:12:31;99832.47;;;7.73;100.00
69257;BME280;56376;53.356;-1.748;2023-02-19T01:14:57;99829.03;;;7.71;100.00
69257;BME280;56376;53.356;-1.748;2023-02-19T01:17:22;99825.63;;;7.69;100.00
69257;BME280;56376;53.356;-1.748;2023-02-19T01:19:48;99836.03;;;7.69;100.00
69257;BME280;56376;53.356;-1.748;2023-02-19T01:22:13;99848.19;;;7.67;100.00
69257;BME280;56376;53.356;-1.748;2023-02-19T01:24:39;99851.72;;;7.64;100.00
69257;BME280;56376;53.356;-1.748;2023-02-19T01:27:04;99850.19;;;7.52;100.00
69257;BME280;56376;53.356;-1.748;2023-02-19T01:29:30;99862.34;;;7.52;100.00
69257;BME280;56376;53.356;-1.748;2023-02-19T01:31:55;99870.00;;;7.58;100.00
69257;BME280;56376;53.356;-1.748;2023-02-19T01:34:20;99877.00;;;7.54;100.00
69257;BME280;56376;53.356;-1.748;2023-02-19T01:36:46;99883.00;;;7.59;100.00
69257;BME280;56376;53.356;-1.748;2023-02-19T01:39:11;99902.25;;;7.49;100.00
69257;BME280;56376;53.356;-1.748;2023-02-19T01:41:39;99916.00;;;7.54;100.00
69257;BME280;56376;53.356;-1.748;2023-02-19T01:46:43;99920.44;;;7.49;100.00
69257;BME280;56376;53.356;-1.748;2023-02-19T01:49:17;99930.91;;;7.45;100.00
69257;BME280;56376;53.356;-1.748;2023-02-19T01:51:47;99959.63;;;7.37;100.00
69257;BME280;56376;53.356;-1.748;2023-02-19T01:54:16;99964.03;;;7.33;100.00
69257;BME280;56376;53.356;-1.748;2023-02-19T01:56:43;99963.13;;;7.34;100.00
69257;BME280;56376;53.356;-1.748;2023-02-19T01:59:11;99983.88;;;7.37;100.00
69257;BME280;56376;53.356;-1.748;2023-02-19T02:01:38;99989.19;;;7.31;100.00
69257;BME280;56376;53.356;-1.748;2023-02-19T02:04:06;99975.44;;;7.23;100.00
69257;BME280;56376;53.356;-1.748;2023-02-19T02:06:35;99996.31;;;7.19;100.00
69257;BME280;56376;53.356;-1.748;2023-02-19T02:09:03;99992.03;;;7.14;100.00
69257;BME280;56376;53.356;-1.748;2023-02-19T02:11:49;99999.00;;;7.11;100.00
69257;BME280;56376;53.356;-1.748;2023-02-19T02:14:21;99999.06;;;7.06;100.00
69257;BME280;56376;53.356;-1.748;2023-02-19T02:16:56;100004.38;;;6.99;100.00
69257;BME280;56376;53.356;-1.748;2023-02-19T02:24:52;100014.09;;;6.84;100.00
69257;BME280;56376;53.356;-1.748;2023-02-19T02:35:47;100042.75;;;6.78;100.00
69257;BME280;56376;53.356;-1.748;2023-02-19T02:38:15;100046.19;;;6.77;100.00
69257;BME280;56376;53.356;-1.748;2023-02-19T02:40:43;100054.94;;;6.73;100.00
69257;BME280;56376;53.356;-1.748;2023-02-19T02:43:09;100066.16;;;6.72;100.00
69257;BME280;56376;53.356;-1.748;2023-02-19T02:45:35;100079.22;;;6.66;100.00
69257;BME280;56376;53.356;-1.748;2023-02-19T02:56:25;100095.03;;;6.46;100.00
69257;BME280;56376;53.356;-1.748;2023-02-19T02:58:52;100102.78;;;6.47;100.00
69257;BME280;56376;53.356;-1.748;2023-02-19T03:01:28;100125.28;;;6.48;100.00
69257;BME280;56376;53.356;-1.748;2023-02-19T03:04:23;100120.94;;;6.49;100.00
69257;BME280;56376;53.356;-1.748;2023-02-19T03:06:51;100136.50;;;6.50;100.00
69257;BME280;56376;53.356;-1.748;2023-02-19T03:09:23;100139.91;;;6.53;100.00
69257;BME280;56376;53.356;-1.748;2023-02-19T03:11:57;100149.53;;;6.46;100.00
69257;BME280;56376;53.356;-1.748;2023-02-19T03:14:48;100144.34;;;6.46;100.00
69257;BME280;56376;53.356;-1.748;2023-02-19T03:17:38;100152.94;;;6.49;100.00
69257;BME280;56376;53.356;-1.748;2023-02-19T03:20:26;100154.75;;;6.40;100.00
69257;BME280;56376;53.356;-1.748;2023-02-19T03:22:53;100162.47;;;6.47;100.00
69257;BME280;56376;53.356;-1.748;2023-02-19T03:25:27;100153.91;;;6.39;100.00
69257;BME280;56376;53.356;-1.748;2023-02-19T03:28:12;100161.72;;;6.36;100.00
69257;BME280;56376;53.356;-1.748;2023-02-19T03:30:46;100165.19;;;6.32;100.00
69257;BME280;56376;53.356;-1.748;2023-02-19T03:33:15;100174.03;;;6.13;100.00
69257;BME280;56376;53.356;-1.748;2023-02-19T03:35:45;100171.44;;;6.10;100.00
69257;BME280;56376;53.356;-1.748;2023-02-19T03:38:19;100184.38;;;6.14;100.00
69257;BME280;56376;53.356;-1.748;2023-02-19T03:43:51;100198.22;;;6.16;100.00
69257;BME280;56376;53.356;-1.748;2023-02-19T03:46:24;100182.63;;;6.21;100.00
69257;BME280;56376;53.356;-1.748;2023-02-19T03:49:01;100199.91;;;6.19;100.00
69257;BME280;56376;53.356;-1.748;2023-02-19T03:51:36;100206.84;;;6.18;100.00
69257;BME280;56376;53.356;-1.748;2023-02-19T03:57:15;100221.53;;;6.21;100.00
69257;BME280;56376;53.356;-1.748;2023-02-19T04:00:34;100216.38;;;6.18;100.00
69257;BME280;56376;53.356;-1.748;2023-02-19T04:05:20;100225.91;;;6.13;100.00
69257;BME280;56376;53.356;-1.748;2023-02-19T04:07:49;100220.69;;;6.14;100.00
69257;BME280;56376;53.356;-1.748;2023-02-19T04:10:17;100238.84;;;6.16;100.00
69257;BME280;56376;53.356;-1.748;2023-02-19T04:12:47;100232.81;;;6.14;100.00
69257;BME280;56376;53.356;-1.748;2023-02-19T04:15:17;100247.56;;;6.05;100.00
69257;BME280;56376;53.356;-1.748;2023-02-19T04:17:57;100247.59;;;6.02;100.00
69257;BME280;56376;53.356;-1.748;2023-02-19T04:20:26;100247.56;;;6.04;100.00
69257;BME280;56376;53.356;-1.748;2023-02-19T04:22:54;100248.44;;;6.06;100.00
69257;BME280;56376;53.356;-1.748;2023-02-19T04:25:21;100253.63;;;6.03;100.00
69257;BME280;56376;53.356;-1.748;2023-02-19T04:27:47;100254.47;;;6.06;100.00
69257;BME280;56376;53.356;-1.748;2023-02-19T04:30:13;100266.59;;;6.06;100.00
69257;BME280;56376;53.356;-1.748;2023-02-19T04:32:39;100257.97;;;6.02;100.00
69257;BME280;56376;53.356;-1.748;2023-02-19T04:35:05;100263.16;;;5.99;100.00
69257;BME280;56376;53.356;-1.748;2023-02-19T04:37:30;100276.97;;;6.03;100.00
69257;BME280;56376;53.356;-1.748;2023-02-19T04:39:55;100272.66;;;6.05;100.00
69257;BME280;56376;53.356;-1.748;2023-02-19T04:42:21;100280.41;;;6.06;100.00
69257;BME280;56376;53.356;-1.748;2023-02-19T04:44:47;100278.72;;;5.99;100.00
69257;BME280;56376;53.356;-1.748;2023-02-19T04:47:12;100282.19;;;5.98;100.00
69257;BME280;56376;53.356;-1.748;2023-02-19T04:49:37;100280.44;;;6.00;100.00
69257;BME280;56376;53.356;-1.748;2023-02-19T04:52:03;100269.25;;;5.95;100.00
69257;BME280;56376;53.356;-1.748;2023-02-19T04:54:28;100283.06;;;5.93;100.00
69257;BME280;56376;53.356;-1.748;2023-02-19T04:56:54;100282.25;;;5.80;100.00
69257;BME280;56376;53.356;-1.748;2023-02-19T04:59:19;100288.25;;;5.86;100.00
69257;BME280;56376;53.356;-1.748;2023-02-19T05:01:45;100293.47;;;5.82;100.00
69257;BME280;56376;53.356;-1.748;2023-02-19T05:04:10;100290.88;;;5.79;100.00
69257;BME280;56376;53.356;-1.748;2023-02-19T05:06:36;100294.34;;;5.81;100.00
69257;BME280;56376;53.356;-1.748;2023-02-19T05:09:01;100302.13;;;5.78;100.00
69257;BME280;56376;53.356;-1.748;2023-02-19T05:11:27;100304.75;;;5.75;100.00
69257;BME280;56376;53.356;-1.748;2023-02-19T05:13:54;100309.94;;;5.75;100.00
69257;BME280;56376;53.356;-1.748;2023-02-19T05:16:20;100302.16;;;5.73;100.00
69257;BME280;56376;53.356;-1.748;2023-02-19T05:18:45;100313.38;;;5.78;100.00
69257;BME280;56376;53.356;-1.748;2023-02-19T05:21:11;100327.19;;;5.79;100.00
69257;BME280;56376;53.356;-1.748;2023-02-19T05:23:37;100313.34;;;5.81;100.00
69257;BME280;56376;53.356;-1.748;2023-02-19T05:26:04;100328.03;;;5.81;100.00
69257;BME280;56376;53.356;-1.748;2023-02-19T05:28:30;100342.75;;;5.80;100.00
69257;BME280;56376;53.356;-1.748;2023-02-19T05:30:55;100339.28;;;5.81;100.00
69257;BME280;56376;53.356;-1.748;2023-02-19T05:33:23;100345.31;;;5.82;100.00
69257;BME280;56376;53.356;-1.748;2023-02-19T05:35:51;100351.34;;;5.84;100.00
69257;BME280;56376;53.356;-1.748;2023-02-19T05:38:18;100350.50;;;5.85;100.00
69257;BME280;56376;53.356;-1.748;2023-02-19T05:40:44;100364.31;;;5.87;100.00
69257;BME280;56376;53.356;-1.748;2023-02-19T05:43:10;100350.50;;;5.88;100.00
69257;BME280;56376;53.356;-1.748;2023-02-19T05:45:36;100361.72;;;5.89;100.00
69257;BME280;56376;53.356;-1.748;2023-02-19T05:48:02;100380.75;;;5.86;100.00
69257;BME280;56376;53.356;-1.748;2023-02-19T05:50:28;100383.34;;;5.88;100.00
69257;BME280;56376;53.356;-1.748;2023-02-19T05:52:54;100376.44;;;5.88;100.00
69257;BME280;56376;53.356;-1.748;2023-02-19T05:55:19;100377.28;;;5.89;100.00
69257;BME280;56376;53.356;-1.748;2023-02-19T05:57:46;100379.88;;;5.90;100.00
69257;BME280;56376;53.356;-1.748;2023-02-19T06:00:15;100372.09;;;5.90;100.00
69257;BME280;56376;53.356;-1.748;2023-02-19T06:02:40;100385.03;;;5.92;100.00
69257;BME280;56376;53.356;-1.748;2023-02-19T06:05:06;100375.56;;;5.95;100.00
69257;BME280;56376;53.356;-1.748;2023-02-19T06:07:32;100364.31;;;5.96;100.00
69257;BME280;56376;53.356;-1.748;2023-02-19T06:09:58;100370.38;;;5.95;100.00
69257;BME280;56376;53.356;-1.748;2023-02-19T06:12:23;100369.50;;;5.96;100.00
69257;BME280;56376;53.356;-1.748;2023-02-19T06:14:49;100360.88;;;5.96;100.00
69257;BME280;56376;53.356;-1.748;2023-02-19T06:17:14;100358.25;;;5.94;100.00
69257;BME280;56376;53.356;-1.748;2023-02-19T06:19:40;100363.44;;;5.94;100.00
69257;BME280;56376;53.356;-1.748;2023-02-19T06:22:06;100365.16;;;5.89;100.00
69257;BME280;56376;53.356;-1.748;2023-02-19T06:24:32;100379.00;;;5.88;100.00
69257;BME280;56376;53.356;-1.748;2023-02-19T06:26:57;100390.25;;;5.84;100.00
69257;BME280;56376;53.356;-1.748;2023-02-19T06:29:23;100402.34;;;5.82;100.00
69257;BME280;56376;53.356;-1.748;2023-02-19T06:31:48;100400.66;;;5.73;100.00
69257;BME280;56376;53.356;-1.748;2023-02-19T06:34:14;100409.31;;;5.68;100.00
69257;BME280;56376;53.356;-1.748;2023-02-19T06:36:40;100411.91;;;5.66;100.00
69257;BME280;56376;53.356;-1.748;2023-02-19T06:39:05;100405.00;;;5.63;100.00
69257;BME280;56376;53.356;-1.748;2023-02-19T06:41:31;100414.53;;;5.58;100.00
69257;BME280;56376;53.356;-1.748;2023-02-19T06:43:57;100399.00;;;5.57;100.00
69257;BME280;56376;53.356;-1.748;2023-02-19T06:46:22;100410.22;;;5.45;100.00
69257;BME280;56376;53.356;-1.748;2023-02-19T06:48:48;100405.03;;;5.48;100.00
69257;BME280;56376;53.356;-1.748;2023-02-19T06:51:16;100421.44;;;5.50;100.00
69257;BME280;56376;53.356;-1.748;2023-02-19T06:53:48;100431.81;;;5.47;100.00
69257;BME280;56376;53.356;-1.748;2023-02-19T06:58:51;100442.19;;;5.55;100.00
69257;BME280;56376;53.356;-1.748;2023-02-19T07:01:16;100426.63;;;5.50;100.00
69257;BME280;56376;53.356;-1.748;2023-02-19T07:03:42;100426.63;;;5.46;100.00
69257;BME280;56376;53.356;-1.748;2023-02-19T07:06:07;100422.31;;;5.45;100.00
69257;BME280;56376;53.356;-1.748;2023-02-19T07:08:33;100430.97;;;5.45;100.00
69257;BME280;56376;53.356;-1.748;2023-02-19T07:10:58;100431.81;;;5.46;100.00
69257;BME280;56376;53.356;-1.748;2023-02-19T07:13:25;100437.00;;;5.49;100.00
69257;BME280;56376;53.356;-1.748;2023-02-19T07:16:02;100433.53;;;5.54;100.00
69257;BME280;56376;53.356;-1.748;2023-02-19T07:18:29;100437.00;;;5.59;100.00
69257;BME280;56376;53.356;-1.748;2023-02-19T07:20:54;100423.16;;;5.59;100.00
69257;BME280;56376;53.356;-1.748;2023-02-19T07:23:20;100419.72;;;5.60;100.00
69257;BME280;56376;53.356;-1.748;2023-02-19T07:25:45;100407.59;;;5.63;100.00
69257;BME280;56376;53.356;-1.748;2023-02-19T07:28:10;100407.59;;;5.65;100.00
69257;BME280;56376;53.356;-1.748;2023-02-19T07:30:36;100407.59;;;5.67;100.00
69257;BME280;56376;53.356;-1.748;2023-02-19T07:33:01;100409.31;;;5.69;100.00
69257;BME280;56376;53.356;-1.748;2023-02-19T07:35:27;100410.19;;;5.73;100.00
69257;BME280;56376;53.356;-1.748;2023-02-19T07:37:53;100417.94;;;5.74;100.00
69257;BME280;56376;53.356;-1.748;2023-02-19T07:40:18;100423.13;;;5.76;100.00
69257;BME280;56376;53.356;-1.748;2023-02-19T07:42:44;100430.03;;;5.77;100.00
69257;BME280;56376;53.356;-1.748;2023-02-19T07:45:09;100441.25;;;5.79;100.00
69257;BME280;56376;53.356;-1.748;2023-02-19T07:47:34;100462.03;;;5.77;100.00
69257;BME280;56376;53.356;-1.748;2023-02-19T07:50:00;100451.63;;;5.80;100.00
69257;BME280;56376;53.356;-1.748;2023-02-19T07:52:25;100467.19;;;5.80;100.00
69257;BME280;56376;53.356;-1.748;2023-02-19T07:54:51;100474.97;;;5.79;100.00
69257;BME280;56376;53.356;-1.748;2023-02-19T07:57:16;100481.88;;;5.81;100.00
69257;BME280;56376;53.356;-1.748;2023-02-19T07:59:41;100491.38;;;5.87;100.00
69257;BME280;56376;53.356;-1.748;2023-02-19T08:02:18;100498.28;;;5.86;100.00
69257;BME280;56376;53.356;-1.748;2023-02-19T08:05:03;100501.75;;;5.90;100.00
69257;BME280;56376;53.356;-1.748;2023-02-19T08:07:31;100507.81;;;5.92;100.00
69257;BME280;56376;53.356;-1.748;2023-02-19T08:09:56;100495.72;;;5.90;100.00
69257;BME280;56376;53.356;-1.748;2023-02-19T08:12:44;100513.88;;;5.96;100.00
69257;BME280;56376;53.356;-1.748;2023-02-19T08:15:28;100515.59;;;5.95;100.00
69257;BME280;56376;53.356;-1.748;2023-02-19T08:17:54;100510.41;;;5.97;100.00
69257;BME280;56376;53.356;-1.748;2023-02-19T08:20:19;100491.38;;;5.93;100.00
69257;BME280;56376;53.356;-1.748;2023-02-19T08:22:45;100476.69;;;5.92;100.00
69257;BME280;56376;53.356;-1.748;2023-02-19T08:25:10;100468.03;;;5.92;100.00
69257;BME280;56376;53.356;-1.748;2023-02-19T08:27:35;100479.28;;;5.91;100.00
69257;BME280;56376;53.356;-1.748;2023-02-19T08:30:01;100486.19;;;5.93;100.00
69257;BME280;56376;53.356;-1.748;2023-02-19T08:32:27;100468.91;;;5.92;100.00
69257;BME280;56376;53.356;-1.748;2023-02-19T08:34:52;100449.88;;;5.93;100.00
69257;BME280;56376;53.356;-1.748;2023-02-19T08:37:17;100452.47;;;5.93;100.00
69257;BME280;56376;53.356;-1.748;2023-02-19T08:39:43;100449.03;;;5.94;100.00
69257;BME280;56376;53.356;-1.748;2023-02-19T08:42:08;100466.34;;;5.95;100.00
69257;BME280;56376;53.356;-1.748;2023-02-19T08:44:33;100481.03;;;6.02;100.00
69257;BME280;56376;53.356;-1.748;2023-02-19T08:46:59;100493.13;;;6.05;100.00
69257;BME280;56376;53.356;-1.748;2023-02-19T08:49:25;100491.41;;;5.98;100.00
69257;BME280;56376;53.356;-1.748;2023-02-19T08:51:51;100477.56;;;5.96;100.00
69257;BME280;56376;53.356;-1.748;2023-02-19T08:54:17;100481.84;;;6.04;100.00
69257;BME280;56376;53.356;-1.748;2023-02-19T08:56:42;100478.41;;;6.10;100.00
69257;BME280;56376;53.356;-1.748;2023-02-19T08:59:08;100499.09;;;6.19;100.00
69257;BME280;56376;53.356;-1.748;2023-02-19T09:01:33;100506.88;;;6.27;100.00
69257;BME280;56376;53.356;-1.748;2023-02-19T09:03:59;100490.44;;;6.33;100.00
69257;BME280;56376;53.356;-1.748;2023-02-19T09:06:24;100512.84;;;6.50;100.00
69257;BME280;56376;53.356;-1.748;2023-02-19T09:08:50;100520.59;;;6.60;100.00
69257;BME280;56376;53.356;-1.748;2023-02-19T09:11:15;100507.56;;;6.72;100.00
69257;BME280;56376;53.356;-1.748;2023-02-19T09:13:41;100504.97;;;6.72;100.00
69257;BME280;56376;53.356;-1.748;2023-02-19T09:16:07;100518.81;;;6.71;100.00
69257;BME280;56376;53.356;-1.748;2023-02-19T09:18:32;100524.03;;;6.65;100.00
69257;BME280;56376;53.356;-1.748;2023-02-19T09:20:59;100518.03;;;6.58;100.00
69257;BME280;56376;53.356;-1.748;2023-02-19T09:23:25;100513.63;;;6.65;100.00
69257;BME280;56376;53.356;-1.748;2023-02-19T09:25:56;100516.19;;;6.79;100.00
69257;BME280;56376;53.356;-1.748;2023-02-19T09:28:24;100527.38;;;6.87;100.00
69257;BME280;56376;53.356;-1.748;2023-02-19T09:30:49;100525.63;;;6.97;100.00
69257;BME280;56376;53.356;-1.748;2023-02-19T09:33:14;100530.75;;;7.03;100.00
69257;BME280;56376;53.356;-1.748;2023-02-19T09:35:40;100537.66;;;7.05;100.00
69257;BME280;56376;53.356;-1.748;2023-02-19T09:38:05;100531.63;;;7.06;100.00
69257;BME280;56376;53.356;-1.748;2023-02-19T09:40:31;100527.22;;;7.13;100.00
69257;BME280;56376;53.356;-1.748;2023-02-19T09:42:56;100521.22;;;7.11;100.00
69257;BME280;56376;53.356;-1.748;2023-02-19T09:45:24;100525.50;;;7.15;100.00
69257;BME280;56376;53.356;-1.748;2023-02-19T09:47:55;100526.31;;;7.20;100.00
69257;BME280;56376;53.356;-1.748;2023-02-19T09:50:42;100530.72;;;7.13;100.00
69257;BME280;56376;53.356;-1.748;2023-02-19T09:53:19;100522.09;;;7.08;100.00
69257;BME280;56376;53.356;-1.748;2023-02-19T09:55:46;100523.78;;;7.08;100.00
69257;BME280;56376;53.356;-1.748;2023-02-19T09:58:27;100517.75;;;7.09;100.00
69257;BME280;56376;53.356;-1.748;2023-02-19T10:00:56;100514.25;;;7.14;100.00
69257;BME280;56376;53.356;-1.748;2023-02-19T10:03:27;100510.75;;;7.15;100.00
69257;BME280;56376;53.356;-1.748;2023-02-19T10:05:59;100515.06;;;7.20;100.00
69257;BME280;56376;53.356;-1.748;2023-02-19T10:08:26;100523.72;;;7.22;100.00
69257;BME280;56376;53.356;-1.748;2023-02-19T10:10:52;100527.16;;;7.28;100.00
69257;BME280;56376;53.356;-1.748;2023-02-19T10:13:21;100529.69;;;7.36;100.00
69257;BME280;56376;53.356;-1.748;2023-02-19T10:15:50;100520.03;;;7.53;100.00
69257;BME280;56376;53.356;-1.748;2023-02-19T10:18:21;100517.38;;;7.59;100.00
69257;BME280;56376;53.356;-1.748;2023-02-19T10:20:48;100516.50;;;7.62;100.00
69257;BME280;56376;53.356;-1.748;2023-02-19T10:23:15;100521.63;;;7.68;100.00
69257;BME280;56376;53.356;-1.748;2023-02-19T10:25:48;100520.78;;;7.66;100.00
69257;BME280;56376;53.356;-1.748;2023-02-19T10:28:18;100523.44;;;7.60;100.00
69257;BME280;56376;53.356;-1.748;2023-02-19T10:30:53;100533.03;;;7.53;100.00
69257;BME280;56376;53.356;-1.748;2023-02-19T10:33:19;100524.41;;;7.45;100.00
69257;BME280;56376;53.356;-1.748;2023-02-19T10:38:18;100542.63;;;7.47;100.00
69257;BME280;56376;53.356;-1.748;2023-02-19T10:40:44;100529.59;;;7.48;100.00
69257;BME280;56376;53.356;-1.748;2023-02-19T10:43:20;100533.06;;;7.47;100.00
69257;BME280;56376;53.356;-1.748;2023-02-19T10:45:47;100536.53;;;7.49;100.00
69257;BME280;56376;53.356;-1.748;2023-02-19T10:48:34;100527.81;;;7.56;100.00
69257;BME280;56376;53.356;-1.748;2023-02-19T10:51:07;100536.50;;;7.54;100.00
69257;BME280;56376;53.356;-1.748;2023-02-19T10:56:29;100531.28;;;7.54;100.00
69257;BME280;56376;53.356;-1.748;2023-02-19T10:59:13;100537.34;;;7.54;100.00
69257;BME280;56376;53.356;-1.748;2023-02-19T11:01:51;100536.47;;;7.55;100.00
69257;BME280;56376;53.356;-1.748;2023-02-19T11:04:17;100536.44;;;7.62;100.00
69257;BME280;56376;53.356;-1.748;2023-02-19T11:06:44;100535.53;;;7.63;100.00
69257;BME280;56376;53.356;-1.748;2023-02-19T11:09:31;100539.84;;;7.67;100.00
69257;BME280;56376;53.356;-1.748;2023-02-19T11:12:00;100531.16;;;7.68;100.00
69257;BME280;56376;53.356;-1.748;2023-02-19T11:14:26;100525.97;;;7.68;100.00
69257;BME280;56376;53.356;-1.748;2023-02-19T11:16:58;100524.25;;;7.65;100.00
69257;BME280;56376;53.356;-1.748;2023-02-19T11:22:00;100526.00;;;7.66;100.00
69257;BME280;56376;53.356;-1.748;2023-02-19T11:24:49;100532.00;;;7.73;100.00
69257;BME280;56376;53.356;-1.748;2023-02-19T11:27:19;100530.31;;;7.67;100.00
69257;BME280;56376;53.356;-1.748;2023-02-19T11:29:45;100536.41;;;7.63;100.00
69257;BME280;56376;53.356;-1.748;2023-02-19T11:32:24;100543.31;;;7.66;100.00
69257;BME280;56376;53.356;-1.748;2023-02-19T11:34:51;100539.00;;;7.66;100.00
69257;BME280;56376;53.356;-1.748;2023-02-19T11:37:19;100541.53;;;7.71;100.00
69257;BME280;56376;53.356;-1.748;2023-02-19T11:39:49;100532.88;;;7.72;100.00
69257;BME280;56376;53.356;-1.748;2023-02-19T11:59:04;100498.59;;;8.19;100.00
69257;BME280;56376;53.356;-1.748;2023-02-19T12:07:09;100483.81;;;8.21;100.00
69257;BME280;56376;53.356;-1.748;2023-02-19T12:26:21;100465.31;;;8.46;100.00
69257;BME280;56376;53.356;-1.748;2023-02-19T12:42:42;100474.34;;;8.87;100.00
69257;BME280;56376;53.356;-1.748;2023-02-19T12:45:18;100483.81;;;8.93;100.00
69257;BME280;56376;53.356;-1.748;2023-02-19T12:47:57;100458.50;;;8.99;100.00
69257;BME280;56376;53.356;-1.748;2023-02-19T12:50:26;100425.47;;;9.03;100.00
69257;BME280;56376;53.356;-1.748;2023-02-19T12:52:57;100448.00;;;9.04;100.00
69257;BME280;56376;53.356;-1.748;2023-02-19T12:55:28;100443.72;;;9.01;100.00
69257;BME280;56376;53.356;-1.748;2023-02-19T12:57:55;100444.53;;;9.05;100.00
69257;BME280;56376;53.356;-1.748;2023-02-19T13:00:49;100444.53;;;9.05;100.00
69257;BME280;56376;53.356;-1.748;2023-02-19T13:03:34;100438.31;;;9.14;100.00
69257;BME280;56376;53.356;-1.748;2023-02-19T13:08:57;100431.38;;;9.13;100.00
69257;BME280;56376;53.356;-1.748;2023-02-19T13:11:26;100429.69;;;9.10;100.00
69257;BME280;56376;53.356;-1.748;2023-02-19T13:14:02;100434.88;;;9.12;100.00
69257;BME280;56376;53.356;-1.748;2023-02-19T13:16:30;100405.22;;;9.19;100.00
69257;BME280;56376;53.356;-1.748;2023-02-19T13:19:00;100431.19;;;9.25;100.00
69257;BME280;56376;53.356;-1.748;2023-02-19T13:21:34;100435.50;;;9.26;100.00
69257;BME280;56376;53.356;-1.748;2023-02-19T13:24:33;100433.88;;;9.20;100.00
69257;BME280;56376;53.356;-1.748;2023-02-19T13:32:39;100432.00;;;9.28;100.00
69257;BME280;56376;53.356;-1.748;2023-02-19T13:35:49;100424.97;;;9.32;100.00
69257;BME280;56376;53.356;-1.748;2023-02-19T13:38:18;100401.47;;;9.35;100.00
69257;BME280;56376;53.356;-1.748;2023-02-19T13:40:55;100395.28;;;9.41;100.00
69257;BME280;56376;53.356;-1.748;2023-02-19T13:43:26;100391.81;;;9.40;100.00
69257;BME280;56376;53.356;-1.748;2023-02-19T13:45:57;100380.63;;;9.32;100.00
69257;BME280;56376;53.356;-1.748;2023-02-19T13:48:27;100395.47;;;9.30;100.00
69257;BME280;56376;53.356;-1.748;2023-02-19T14:04:49;100358.88;;;9.35;100.00
69257;BME280;56376;53.356;-1.748;2023-02-19T14:14:39;100336.03;;;9.47;100.00
69257;BME280;56376;53.356;-1.748;2023-02-19T14:33:16;100360.63;;;9.34;100.00
69257;BME280;56376;53.356;-1.748;2023-02-19T14:35:44;100355.47;;;9.32;100.00
69257;BME280;56376;53.356;-1.748;2023-02-19T14:38:19;100362.38;;;9.34;100.00
69257;BME280;56376;53.356;-1.748;2023-02-19T14:40:46;100357.16;;;9.35;100.00
69257;BME280;56376;53.356;-1.748;2023-02-19T14:43:14;100348.41;;;9.38;100.00
69257;BME280;56376;53.356;-1.748;2023-02-19T14:45:44;100336.28;;;9.35;100.00
69257;BME280;56376;53.356;-1.748;2023-02-19T14:48:22;100333.63;;;9.37;100.00
69257;BME280;56376;53.356;-1.748;2023-02-19T14:50:52;100337.06;;;9.40;100.00
69257;BME280;56376;53.356;-1.748;2023-02-19T14:53:21;100327.44;;;9.42;100.00
69257;BME280;56376;53.356;-1.748;2023-02-19T14:55:49;100331.66;;;9.49;100.00
69257;BME280;56376;53.356;-1.748;2023-02-19T14:58:27;100317.00;;;9.44;100.00
69257;BME280;56376;53.356;-1.748;2023-02-19T15:00:53;100323.00;;;9.47;100.00
69257;BME280;56376;53.356;-1.748;2023-02-19T15:06:05;100324.81;;;9.42;100.00
69257;BME280;56376;53.356;-1.748;2023-02-19T15:08:37;100320.50;;;9.43;100.00
69257;BME280;56376;53.356;-1.748;2023-02-19T15:11:08;100317.91;;;9.41;100.00
69257;BME280;56376;53.356;-1.748;2023-02-19T15:13:35;100320.50;;;9.41;100.00
69257;BME280;56376;53.356;-1.748;2023-02-19T15:16:01;100323.09;;;9.43;100.00
69257;BME280;56376;53.356;-1.748;2023-02-19T15:18:26;100325.66;;;9.46;100.00
69257;BME280;56376;53.356;-1.748;2023-02-19T15:21:02;100312.69;;;9.43;100.00